Time;durP1;ratioP1;P1;durP2;ratioP2;P2;SDS_P1;SDS_P2;PMS_P1;PMS_P2;Temp;Humidity;BMP_temperature;BMP_pressure;BME280_temperature;BME280_humidity;BME280_pressure;Samples;Min_cycle;Max_cycle;Signal;HPM_P1;HPM_P2
2023/09/27 00:01:49;;;;;;;5.63;5.22;;;;;;;;;;5095795;28;20204;-66
2023/09/27 00:04:16;;;;;;;4.78;4.47;;;;;;;;;;5096120;28;20211;-65
2023/09/27 00:06:44;;;;;;;4.93;4.53;;;;;;;;;;5096376;28;20274;-65
2023/09/27 00:09:12;;;;;;;5.28;4.80;;;;;;;;;;5097012;28;20302;-65
2023/09/27 00:11:41;;;;;;;5.30;4.90;;;;;;;;;;5096482;28;20258;-65
2023/09/27 00:14:08;;;;;;;5.50;5.00;;;;;;;;;;5096324;28;20204;-65
2023/09/27 00:16:37;;;;;;;5.80;5.30;;;;;;;;;;5096240;28;20211;-65
2023/09/27 00:19:05;;;;;;;5.15;4.75;;;;;;;;;;5096277;28;20258;-65
2023/09/27 00:21:33;;;;;;;5.20;4.80;;;;;;;;;;5095982;28;20239;-65
2023/09/27 00:24:00;;;;;;;5.18;4.78;;;;;;;;;;5096709;28;20214;-65
2023/09/27 00:26:28;;;;;;;5.15;4.75;;;;;;;;;;5096642;28;20243;-65
2023/09/27 00:28:57;;;;;;;5.50;5.10;;;;;;;;;;5096183;28;20218;-65
2023/09/27 00:31:25;;;;;;;5.22;4.82;;;;;;;;;;5096409;28;20204;-65
2023/09/27 00:33:53;;;;;;;5.15;4.75;;;;;;;;;;5096402;28;20536;-65
2023/09/27 00:36:21;;;;;;;5.03;4.57;;;;;;;;;;5096115;28;20200;-65
2023/09/27 00:38:49;;;;;;;5.00;4.60;;;;;;;;;;5096124;28;20203;-65
2023/09/27 00:41:17;;;;;;;5.28;4.88;;;;;;;;;;5095925;28;20203;-65
2023/09/27 00:43:44;;;;;;;4.93;4.53;;;;;;;;;;5096940;28;20256;-65
2023/09/27 00:46:17;;;;;;;5.00;4.60;;;;;;;;;;5099609;28;20223;-65
2023/09/27 00:48:45;;;;;;;5.60;5.10;;;;;;;;;;5099606;28;20464;-65
2023/09/27 00:51:12;;;;;;;5.43;4.97;;;;;;;;;;5100193;28;20543;-65
2023/09/27 00:53:41;;;;;;;5.00;4.60;;;;;;;;;;5091480;28;20310;-65
2023/09/27 00:56:10;;;;;;;4.88;4.47;;;;;;;;;;5099641;28;20226;-65
2023/09/27 00:58:38;;;;;;;4.95;4.55;;;;;;;;;;5100074;28;20210;-65
2023/09/27 01:01:06;;;;;;;5.18;4.78;;;;;;;;;;5099281;28;20230;-66
2023/09/27 01:03:35;;;;;;;5.20;4.80;;;;;;;;;;5099439;28;20559;-65
2023/09/27 01:06:03;;;;;;;4.95;4.53;;;;;;;;;;5099236;28;20235;-65
2023/09/27 01:08:31;;;;;;;5.20;4.80;;;;;;;;;;5099563;28;20230;-65
2023/09/27 01:10:58;;;;;;;5.32;4.93;;;;;;;;;;5099636;28;20294;-65
2023/09/27 01:13:26;;;;;;;5.38;4.88;;;;;;;;;;5098982;28;20320;-65
2023/09/27 01:15:54;;;;;;;4.93;4.53;;;;;;;;;;5099633;28;20277;-65
2023/09/27 01:18:21;;;;;;;5.13;4.72;;;;;;;;;;5099309;28;20229;-65
2023/09/27 01:20:51;;;;;;;5.15;4.75;;;;;;;;;;5099419;28;20253;-65
2023/09/27 01:23:21;;;;;;;5.20;4.80;;;;;;;;;;5099783;28;20239;-65
2023/09/27 01:25:50;;;;;;;5.10;4.70;;;;;;;;;;5099293;28;20267;-65
2023/09/27 01:28:21;;;;;;;5.07;4.57;;;;;;;;;;5099202;28;20203;-65
2023/09/27 01:30:48;;;;;;;5.20;4.80;;;;;;;;;;5100050;28;20264;-65
2023/09/27 01:33:16;;;;;;;5.13;4.72;;;;;;;;;;5099661;28;20201;-65
2023/09/27 01:35:44;;;;;;;5.35;4.95;;;;;;;;;;5099061;28;20294;-65
2023/09/27 01:38:13;;;;;;;5.20;4.80;;;;;;;;;;5099630;28;20506;-65
2023/09/27 01:40:43;;;;;;;4.65;4.30;;;;;;;;;;5098781;28;20211;-65
2023/09/27 01:43:11;;;;;;;5.35;4.95;;;;;;;;;;5098444;28;20559;-66
2023/09/27 01:45:39;;;;;;;5.35;4.95;;;;;;;;;;5098900;28;20284;-65
2023/09/27 01:48:07;;;;;;;5.07;4.68;;;;;;;;;;5098413;28;20294;-65
2023/09/27 01:50:35;;;;;;;5.00;4.60;;;;;;;;;;5098599;28;20235;-65
2023/09/27 01:53:03;;;;;;;5.07;4.68;;;;;;;;;;5098812;28;20297;-65
2023/09/27 01:55:31;;;;;;;4.78;4.47;;;;;;;;;;5097634;28;20210;-65
2023/09/27 01:58:01;;;;;;;5.18;4.78;;;;;;;;;;5098148;28;20211;-65
2023/09/27 02:00:28;;;;;;;4.97;4.57;;;;;;;;;;5098862;28;20242;-65
2023/09/27 02:02:56;;;;;;;5.20;4.80;;;;;;;;;;5098464;28;20623;-65
2023/09/27 02:05:24;;;;;;;5.35;4.95;;;;;;;;;;5098325;28;20639;-65
2023/09/27 02:07:52;;;;;;;5.40;4.85;;;;;;;;;;5098308;28;20303;-65
2023/09/27 02:10:20;;;;;;;5.43;5.03;;;;;;;;;;5098593;28;20291;-65
2023/09/27 02:12:48;;;;;;;5.30;4.90;;;;;;;;;;5098527;28;20254;-65
2023/09/27 02:15:17;;;;;;;4.90;4.50;;;;;;;;;;5098747;28;20200;-65
2023/09/27 02:17:45;;;;;;;5.32;4.93;;;;;;;;;;5098466;28;20254;-65
2023/09/27 02:20:17;;;;;;;5.05;4.65;;;;;;;;;;5098216;28;20199;-65
2023/09/27 02:22:46;;;;;;;5.22;4.82;;;;;;;;;;5098381;28;20204;-66
2023/09/27 02:25:15;;;;;;;5.38;4.93;;;;;;;;;;5098412;28;20246;-65
2023/09/27 02:27:43;;;;;;;5.25;4.80;;;;;;;;;;5090184;28;20215;-65
2023/09/27 02:30:12;;;;;;;4.78;4.47;;;;;;;;;;5097503;28;20222;-65
2023/09/27 02:32:42;;;;;;;5.10;4.70;;;;;;;;;;5098005;28;20203;-65
2023/09/27 02:35:10;;;;;;;5.03;4.63;;;;;;;;;;5097382;28;20294;-65
2023/09/27 02:37:38;;;;;;;5.18;4.68;;;;;;;;;;5098144;28;20247;-65
2023/09/27 02:40:11;;;;;;;5.15;4.75;;;;;;;;;;5098567;28;20227;-65
2023/09/27 02:42:40;;;;;;;5.10;4.70;;;;;;;;;;5097769;28;20203;-65
2023/09/27 02:45:09;;;;;;;4.80;4.50;;;;;;;;;;5097808;28;20204;-65
2023/09/27 02:47:37;;;;;;;5.18;4.78;;;;;;;;;;5098112;28;20203;-65
2023/09/27 02:50:10;;;;;;;5.18;4.78;;;;;;;;;;5097623;28;20265;-65
2023/09/27 02:52:38;;;;;;;5.50;5.00;;;;;;;;;;5097473;28;20195;-65
2023/09/27 02:55:08;;;;;;;5.43;5.03;;;;;;;;;;5097416;28;20238;-65
2023/09/27 02:57:36;;;;;;;4.78;4.45;;;;;;;;;;5097565;28;20272;-65
2023/09/27 03:00:04;;;;;;;5.35;4.90;;;;;;;;;;5097289;28;20306;-65
2023/09/27 03:02:33;;;;;;;5.13;4.72;;;;;;;;;;5096942;28;20212;-65
2023/09/27 03:05:04;;;;;;;4.78;4.38;;;;;;;;;;5096867;28;20251;-65
2023/09/27 03:07:34;;;;;;;5.30;4.80;;;;;;;;;;5097428;28;20551;-65
2023/09/27 03:10:02;;;;;;;5.15;4.75;;;;;;;;;;5097234;28;20208;-65
2023/09/27 03:12:30;;;;;;;4.88;4.47;;;;;;;;;;5096976;28;20234;-66
2023/09/27 03:14:58;;;;;;;5.20;4.80;;;;;;;;;;5096416;28;20204;-65
2023/09/27 03:17:25;;;;;;;5.10;4.70;;;;;;;;;;5096649;28;20199;-65
2023/09/27 03:19:54;;;;;;;5.75;5.25;;;;;;;;;;5096138;28;20225;-65
2023/09/27 03:22:21;;;;;;;4.20;3.90;;;;;;;;;;5096867;28;20203;-65
2023/09/27 03:24:51;;;;;;;4.68;4.38;;;;;;;;;;5096028;28;20256;-65
2023/09/27 03:27:18;;;;;;;5.38;4.88;;;;;;;;;;5096509;28;20262;-65
2023/09/27 03:29:47;;;;;;;4.50;4.20;;;;;;;;;;5096436;28;20235;-65
2023/09/27 03:32:14;;;;;;;4.93;4.53;;;;;;;;;;5096758;28;20211;-65
2023/09/27 03:34:42;;;;;;;5.10;4.70;;;;;;;;;;5095927;28;20522;-65
2023/09/27 03:37:10;;;;;;;5.07;4.65;;;;;;;;;;5095487;28;20556;-65
2023/09/27 03:39:38;;;;;;;5.15;4.75;;;;;;;;;;5096119;28;20873;-65
2023/09/27 03:42:07;;;;;;;5.03;4.63;;;;;;;;;;5096214;28;20637;-65
2023/09/27 03:44:35;;;;;;;4.93;4.53;;;;;;;;;;5096129;28;20298;-65
2023/09/27 03:47:03;;;;;;;5.13;4.72;;;;;;;;;;5095909;28;20238;-65
2023/09/27 03:49:31;;;;;;;5.10;4.70;;;;;;;;;;5096291;28;20203;-65
2023/09/27 03:51:59;;;;;;;4.95;4.55;;;;;;;;;;5096060;28;20209;-65
2023/09/27 03:54:27;;;;;;;5.25;4.85;;;;;;;;;;5096141;28;20235;-65
2023/09/27 03:56:55;;;;;;;5.40;5.00;;;;;;;;;;5095850;28;20290;-65
2023/09/27 03:59:24;;;;;;;5.53;5.13;;;;;;;;;;5096143;28;20581;-65
2023/09/27 04:01:52;;;;;;;4.88;4.50;;;;;;;;;;5096102;28;20211;-65
2023/09/27 04:04:20;;;;;;;4.38;4.07;;;;;;;;;;5095907;28;20203;-65
2023/09/27 04:06:49;;;;;;;4.90;4.50;;;;;;;;;;5096062;28;20231;-65
2023/09/27 04:09:17;;;;;;;4.90;4.50;;;;;;;;;;5095621;28;20243;-65
2023/09/27 04:11:45;;;;;;;5.00;4.60;;;;;;;;;;5096063;28;20218;-65
2023/09/27 04:14:12;;;;;;;4.53;4.22;;;;;;;;;;5095927;28;20273;-65
2023/09/27 04:16:42;;;;;;;4.60;4.30;;;;;;;;;;5095898;28;20489;-65
2023/09/27 04:19:10;;;;;;;4.70;4.38;;;;;;;;;;5096794;28;20803;-65
2023/09/27 04:21:38;;;;;;;4.93;4.53;;;;;;;;;;5099164;28;20207;-65
2023/09/27 04:24:06;;;;;;;5.00;4.68;;;;;;;;;;5099665;28;20290;-65
2023/09/27 04:26:34;;;;;;;5.18;4.78;;;;;;;;;;5099394;28;20231;-65
2023/09/27 04:29:04;;;;;;;4.68;4.38;;;;;;;;;;5098877;28;20744;-65
2023/09/27 04:31:32;;;;;;;4.80;4.50;;;;;;;;;;5098907;28;20203;-65
2023/09/27 04:34:01;;;;;;;4.47;4.18;;;;;;;;;;5098599;28;20585;-65
2023/09/27 04:36:29;;;;;;;4.82;4.43;;;;;;;;;;5098772;28;20191;-65
2023/09/27 04:38:57;;;;;;;4.97;4.57;;;;;;;;;;5099291;28;20214;-65
2023/09/27 04:41:25;;;;;;;5.18;4.78;;;;;;;;;;5098969;28;20204;-65
2023/09/27 04:43:52;;;;;;;5.00;4.60;;;;;;;;;;5099739;28;20214;-65
2023/09/27 04:46:20;;;;;;;4.65;4.35;;;;;;;;;;5098705;28;20733;-65
2023/09/27 04:48:48;;;;;;;5.05;4.65;;;;;;;;;;5098397;28;20596;-65
2023/09/27 04:51:17;;;;;;;4.90;4.50;;;;;;;;;;5098672;28;20315;-65
2023/09/27 04:53:45;;;;;;;5.20;4.80;;;;;;;;;;5099041;28;20203;-65
2023/09/27 04:56:12;;;;;;;4.68;4.38;;;;;;;;;;5099044;28;20211;-65
2023/09/27 04:58:41;;;;;;;5.18;4.63;;;;;;;;;;5098445;28;20470;-65
2023/09/27 05:01:09;;;;;;;5.00;4.63;;;;;;;;;;5097117;28;20211;-65
2023/09/27 05:03:37;;;;;;;5.07;4.68;;;;;;;;;;5097519;28;20243;-65
2023/09/27 05:06:05;;;;;;;4.90;4.50;;;;;;;;;;5095850;28;20296;-65
2023/09/27 05:08:34;;;;;;;5.40;5.00;;;;;;;;;;5096339;28;20248;-65
2023/09/27 05:11:02;;;;;;;4.82;4.53;;;;;;;;;;5096036;28;20200;-65
2023/09/27 05:13:30;;;;;;;4.97;4.60;;;;;;;;;;5096517;28;20596;-65
2023/09/27 05:15:58;;;;;;;5.00;4.60;;;;;;;;;;5096428;28;20243;-65
2023/09/27 05:18:25;;;;;;;5.15;4.75;;;;;;;;;;5096847;28;20203;-65
2023/09/27 05:20:53;;;;;;;5.13;4.72;;;;;;;;;;5095576;28;20289;-65
2023/09/27 05:23:21;;;;;;;4.80;4.50;;;;;;;;;;5096894;28;20211;-65
2023/09/27 05:25:51;;;;;;;5.50;5.10;;;;;;;;;;5097184;28;20563;-65
2023/09/27 05:28:18;;;;;;;4.93;4.53;;;;;;;;;;5097634;28;20302;-65
2023/09/27 05:30:47;;;;;;;4.55;4.25;;;;;;;;;;5096064;28;20203;-65
2023/09/27 05:33:14;;;;;;;4.80;4.40;;;;;;;;;;5096906;28;20214;-65
2023/09/27 05:35:42;;;;;;;4.80;4.40;;;;;;;;;;5096914;28;20206;-65
2023/09/27 05:38:10;;;;;;;4.80;4.50;;;;;;;;;;5096212;28;20207;-66
2023/09/27 05:40:37;;;;;;;5.00;4.60;;;;;;;;;;5099181;28;20593;-65
2023/09/27 05:43:07;;;;;;;4.63;4.32;;;;;;;;;;5116527;28;20572;-65
2023/09/27 05:45:34;;;;;;;4.50;4.13;;;;;;;;;;5116130;28;20203;-65
2023/09/27 05:48:02;;;;;;;4.97;4.57;;;;;;;;;;5117497;28;20222;-65
2023/09/27 05:50:30;;;;;;;4.85;4.55;;;;;;;;;;5101171;28;20207;-65
2023/09/27 05:52:59;;;;;;;4.93;4.53;;;;;;;;;;5096819;28;20211;-65
2023/09/27 05:55:27;;;;;;;4.85;4.53;;;;;;;;;;5096773;28;20583;-65
2023/09/27 05:57:55;;;;;;;5.13;4.70;;;;;;;;;;5095968;28;20196;-65
2023/09/27 06:00:31;;;;;;;4.72;4.32;;;;;;;;;;5095746;28;20211;-65
2023/09/27 06:02:59;;;;;;;4.63;4.20;;;;;;;;;;5095711;28;20203;-65
2023/09/27 06:05:27;;;;;;;4.05;3.75;;;;;;;;;;5095991;28;20244;-66
2023/09/27 06:07:55;;;;;;;5.03;4.63;;;;;;;;;;5096261;28;20232;-65
2023/09/27 06:10:23;;;;;;;4.72;4.43;;;;;;;;;;5096577;28;20199;-65
2023/09/27 06:12:51;;;;;;;4.63;4.22;;;;;;;;;;5096464;28;20196;-65
2023/09/27 06:15:19;;;;;;;4.82;4.32;;;;;;;;;;5095702;28;20655;-65
2023/09/27 06:17:48;;;;;;;4.80;4.40;;;;;;;;;;5095727;28;20206;-65
2023/09/27 06:20:22;;;;;;;5.00;4.60;;;;;;;;;;5096763;28;20211;-65
2023/09/27 06:22:49;;;;;;;4.97;4.47;;;;;;;;;;5096557;28;20209;-66
2023/09/27 06:25:17;;;;;;;4.93;4.53;;;;;;;;;;5096039;28;20223;-66
2023/09/27 06:27:45;;;;;;;4.28;3.97;;;;;;;;;;5095957;28;20231;-66
2023/09/27 06:30:14;;;;;;;4.53;4.13;;;;;;;;;;5096613;28;20290;-66
2023/09/27 06:32:42;;;;;;;5.43;4.68;;;;;;;;;;5095826;28;20211;-65
2023/09/27 06:35:14;;;;;;;4.57;4.18;;;;;;;;;;5096615;28;20203;-65
2023/09/27 06:37:43;;;;;;;5.32;4.70;;;;;;;;;;5096263;28;20615;-65
2023/09/27 06:40:15;;;;;;;4.90;4.50;;;;;;;;;;5097978;28;20573;-65
2023/09/27 06:42:43;;;;;;;4.70;4.30;;;;;;;;;;5115225;28;20199;-66
2023/09/27 06:45:12;;;;;;;4.93;4.53;;;;;;;;;;5115745;28;20310;-66
2023/09/27 06:47:42;;;;;;;4.55;4.15;;;;;;;;;;5114927;28;20226;-66
2023/09/27 06:50:12;;;;;;;4.13;3.83;;;;;;;;;;5115152;28;20492;-65
2023/09/27 06:52:40;;;;;;;5.18;4.50;;;;;;;;;;5115339;28;20210;-65
2023/09/27 06:55:10;;;;;;;4.57;4.18;;;;;;;;;;5114842;28;20592;-65
2023/09/27 06:57:39;;;;;;;4.75;4.35;;;;;;;;;;5116400;28;20199;-65
2023/09/27 07:00:12;;;;;;;4.40;4.00;;;;;;;;;;5115896;28;20211;-65
2023/09/27 07:02:42;;;;;;;4.75;4.35;;;;;;;;;;5115851;28;20199;-65
2023/09/27 07:05:11;;;;;;;4.78;4.38;;;;;;;;;;5115562;28;20530;-65
2023/09/27 07:07:40;;;;;;;4.40;4.10;;;;;;;;;;5115425;28;20238;-65
2023/09/27 07:10:08;;;;;;;4.85;4.43;;;;;;;;;;5115950;28;20774;-65
2023/09/27 07:12:36;;;;;;;4.63;4.22;;;;;;;;;;5115957;28;20207;-65
2023/09/27 07:15:08;;;;;;;5.30;4.85;;;;;;;;;;5115871;28;20298;-65
2023/09/27 07:17:36;;;;;;;4.80;4.38;;;;;;;;;;5115840;28;20270;-65
2023/09/27 07:20:12;;;;;;;4.43;4.13;;;;;;;;;;5114615;28;20234;-65
2023/09/27 07:22:42;;;;;;;4.57;4.20;;;;;;;;;;5114032;28;20206;-65
2023/09/27 07:25:12;;;;;;;4.78;4.28;;;;;;;;;;5115622;28;20199;-65
2023/09/27 07:27:41;;;;;;;4.38;3.97;;;;;;;;;;5116226;28;20264;-65
2023/09/27 07:30:11;;;;;;;4.53;4.22;;;;;;;;;;5115949;28;20264;-65
2023/09/27 07:32:40;;;;;;;4.28;3.97;;;;;;;;;;5115182;28;20203;-65
2023/09/27 07:35:09;;;;;;;4.45;4.13;;;;;;;;;;5114307;28;20202;-65
2023/09/27 07:37:37;;;;;;;4.40;4.03;;;;;;;;;;5115605;28;20199;-65
2023/09/27 07:40:10;;;;;;;4.80;4.40;;;;;;;;;;5098865;28;20198;-65
2023/09/27 07:42:39;;;;;;;4.82;4.43;;;;;;;;;;5107753;28;20504;-65
2023/09/27 07:45:13;;;;;;;4.43;4.13;;;;;;;;;;5102627;28;20282;-65
2023/09/27 07:47:40;;;;;;;4.18;3.88;;;;;;;;;;5097290;28;20635;-65
2023/09/27 07:50:10;;;;;;;5.00;4.47;;;;;;;;;;5096637;28;20235;-65
2023/09/27 07:52:38;;;;;;;4.40;4.00;;;;;;;;;;5094783;28;20208;-65
2023/09/27 07:55:09;;;;;;;4.40;4.00;;;;;;;;;;5097875;28;20206;-65
2023/09/27 07:57:37;;;;;;;4.68;4.28;;;;;;;;;;5099022;28;20199;-65
2023/09/27 08:00:09;;;;;;;4.40;4.10;;;;;;;;;;5098340;28;20237;-65
2023/09/27 08:02:38;;;;;;;4.50;4.15;;;;;;;;;;5098355;28;20283;-65
2023/09/27 08:05:09;;;;;;;4.03;3.72;;;;;;;;;;5111822;28;20230;-65
2023/09/27 08:07:37;;;;;;;4.90;4.40;;;;;;;;;;5118244;28;20254;-65
2023/09/27 08:10:05;;;;;;;4.60;4.20;;;;;;;;;;5109363;28;20199;-65
2023/09/27 08:12:38;;;;;;;4.30;3.90;;;;;;;;;;5098737;28;20276;-65
2023/09/27 08:15:06;;;;;;;5.25;4.25;;;;;;;;;;5112158;28;20221;-65
2023/09/27 08:17:35;;;;;;;4.40;4.00;;;;;;;;;;5118815;28;20550;-65
2023/09/27 08:20:09;;;;;;;4.45;4.15;;;;;;;;;;5119164;28;20411;-65
2023/09/27 08:22:39;;;;;;;3.83;3.53;;;;;;;;;;5119391;28;20217;-65
2023/09/27 08:25:09;;;;;;;4.40;4.00;;;;;;;;;;5119450;28;20298;-65
2023/09/27 08:27:38;;;;;;;4.32;3.92;;;;;;;;;;5116222;28;20632;-65
2023/09/27 08:30:07;;;;;;;4.15;3.85;;;;;;;;;;5119114;28;20290;-65
2023/09/27 08:32:38;;;;;;;4.50;4.10;;;;;;;;;;5118341;28;20675;-65
2023/09/27 08:35:06;;;;;;;4.22;3.92;;;;;;;;;;5113057;28;20625;-65
2023/09/27 08:37:34;;;;;;;4.03;3.72;;;;;;;;;;5097688;28;20578;-65
2023/09/27 08:40:04;;;;;;;4.47;4.07;;;;;;;;;;5097256;28;20210;-65
2023/09/27 08:42:33;;;;;;;4.00;3.70;;;;;;;;;;5103833;28;20207;-65
2023/09/27 08:45:04;;;;;;;4.43;3.95;;;;;;;;;;5118985;28;20268;-65
2023/09/27 08:47:32;;;;;;;4.32;4.03;;;;;;;;;;5118919;28;20234;-65
2023/09/27 08:50:00;;;;;;;4.07;3.78;;;;;;;;;;5118327;28;20282;-65
2023/09/27 08:52:28;;;;;;;4.22;3.92;;;;;;;;;;5118208;28;20298;-65
2023/09/27 08:54:56;;;;;;;4.30;4.00;;;;;;;;;;5118598;28;20217;-65
2023/09/27 08:57:26;;;;;;;4.10;3.67;;;;;;;;;;5118652;28;20230;-65
2023/09/27 08:59:53;;;;;;;5.00;4.60;;;;;;;;;;5118126;28;20203;-65
2023/09/27 09:02:25;;;;;;;5.15;4.65;;;;;;;;;;5117232;28;20620;-65
2023/09/27 09:04:53;;;;;;;5.70;5.18;;;;;;;;;;5117572;28;20321;-65
2023/09/27 09:07:20;;;;;;;5.25;4.85;;;;;;;;;;5118466;28;20358;-65
2023/09/27 09:09:48;;;;;;;5.10;4.70;;;;;;;;;;5117771;28;20295;-65
2023/09/27 09:12:17;;;;;;;5.20;4.80;;;;;;;;;;5118359;28;20202;-65
2023/09/27 09:14:49;;;;;;;5.85;5.35;;;;;;;;;;5117453;28;20199;-66
2023/09/27 09:17:19;;;;;;;5.45;4.95;;;;;;;;;;5118165;28;20576;-65
2023/09/27 09:20:15;;;;;;;6.47;5.88;;;;;;;;;;5118214;28;20264;-65
2023/09/27 09:22:44;;;;;;;6.38;5.78;;;;;;;;;;5118172;28;20202;-65
2023/09/27 09:25:12;;;;;;;6.07;5.47;;;;;;;;;;5118132;28;20203;-65
2023/09/27 09:27:40;;;;;;;6.18;5.57;;;;;;;;;;5117261;28;20262;-65
2023/09/27 09:30:11;;;;;;;6.25;5.75;;;;;;;;;;5117872;28;20195;-65
2023/09/27 09:32:50;;;;;;;6.80;6.18;;;;;;;;;;5116816;28;20602;-65
2023/09/27 09:35:31;;;;;;;6.80;6.20;;;;;;;;;;5117308;28;20206;-65
2023/09/27 09:38:01;;;;;;;6.13;5.63;;;;;;;;;;5107622;28;20916;-65
2023/09/27 09:40:30;;;;;;;5.95;5.45;;;;;;;;;;5095911;28;20211;-65
2023/09/27 09:42:59;;;;;;;6.55;5.95;;;;;;;;;;5095909;28;20600;-65
2023/09/27 09:45:28;;;;;;;6.60;6.00;;;;;;;;;;5107272;28;20202;-65
2023/09/27 09:47:57;;;;;;;7.15;6.53;;;;;;;;;;5116794;28;20235;-65
2023/09/27 09:50:28;;;;;;;6.65;6.05;;;;;;;;;;5117111;28;20211;-65
2023/09/27 09:53:01;;;;;;;7.00;6.30;;;;;;;;;;5116962;28;20206;-65
2023/09/27 09:55:30;;;;;;;6.80;6.10;;;;;;;;;;5115617;28;20276;-65
2023/09/27 09:58:00;;;;;;;6.68;6.07;;;;;;;;;;5116976;28;20191;-65
2023/09/27 10:00:30;;;;;;;6.97;6.30;;;;;;;;;;5116461;28;20286;-65
2023/09/27 10:03:02;;;;;;;7.32;6.63;;;;;;;;;;5116599;28;20207;-65
2023/09/27 10:05:36;;;;;;;8.32;6.40;;;;;;;;;;5116251;28;20601;-65
2023/09/27 10:08:06;;;;;;;6.90;6.30;;;;;;;;;;5118235;28;20486;-65
2023/09/27 10:10:34;;;;;;;7.00;6.40;;;;;;;;;;5115695;28;20560;-65
2023/09/27 10:13:03;;;;;;;7.90;6.82;;;;;;;;;;5115663;28;20227;-65
2023/09/27 10:15:33;;;;;;;7.90;6.32;;;;;;;;;;5116595;28;20293;-65
2023/09/27 10:18:19;;;;;;;7.43;6.72;;;;;;;;;;5114109;28;20202;-64
2023/09/27 10:21:02;;;;;;;7.18;6.57;;;;;;;;;;5114837;28;20322;-64
2023/09/27 10:23:36;;;;;;;7.95;7.10;;;;;;;;;;5115428;28;20293;-64
2023/09/27 10:26:19;;;;;;;7.72;7.05;;;;;;;;;;5116278;28;20199;-64
2023/09/27 10:29:06;;;;;;;7.10;6.40;;;;;;;;;;5115492;28;20262;-65
2023/09/27 10:31:36;;;;;;;7.35;6.65;;;;;;;;;;5116228;28;20203;-65
2023/09/27 10:34:04;;;;;;;7.78;7.07;;;;;;;;;;5115921;28;20207;-65
2023/09/27 10:36:33;;;;;;;8.18;7.45;;;;;;;;;;5115579;28;20210;-65
2023/09/27 10:39:06;;;;;;;7.88;7.15;;;;;;;;;;5115532;28;20611;-65
2023/09/27 10:41:48;;;;;;;7.68;6.97;;;;;;;;;;5115295;28;20283;-64
2023/09/27 10:44:29;;;;;;;8.18;7.38;;;;;;;;;;5115910;28;20320;-65
2023/09/27 10:46:57;;;;;;;8.35;7.65;;;;;;;;;;5108693;28;20253;-65
2023/09/27 10:49:29;;;;;;;8.25;7.53;;;;;;;;;;5115054;28;20223;-65
2023/09/27 10:51:57;;;;;;;8.15;7.40;;;;;;;;;;5116273;28;20202;-65
2023/09/27 10:54:28;;;;;;;8.25;7.50;;;;;;;;;;5115070;28;20627;-65
2023/09/27 10:56:56;;;;;;;8.20;7.50;;;;;;;;;;5115307;28;20561;-65
2023/09/27 10:59:25;;;;;;;8.25;7.45;;;;;;;;;;5115814;28;20548;-65
2023/09/27 11:01:53;;;;;;;8.05;7.35;;;;;;;;;;5114148;28;20210;-65
2023/09/27 11:04:24;;;;;;;8.88;8.07;;;;;;;;;;5114762;28;20287;-65
2023/09/27 11:06:52;;;;;;;8.35;7.65;;;;;;;;;;5114553;28;20231;-65
2023/09/27 11:09:20;;;;;;;8.45;7.75;;;;;;;;;;5114706;28;20258;-65
2023/09/27 11:11:50;;;;;;;8.88;8.10;;;;;;;;;;5114954;28;20285;-65
2023/09/27 11:14:35;;;;;;;8.65;7.85;;;;;;;;;;5115139;28;20645;-65
2023/09/27 11:17:16;;;;;;;9.38;8.48;;;;;;;;;;5114954;28;20294;-65
2023/09/27 11:19:43;;;;;;;9.02;8.13;;;;;;;;;;5115531;28;20242;-65
2023/09/27 11:22:11;;;;;;;8.60;7.80;;;;;;;;;;5115166;28;20203;-65
2023/09/27 11:24:40;;;;;;;8.27;7.57;;;;;;;;;;5114405;28;20305;-65
2023/09/27 11:27:09;;;;;;;8.05;7.25;;;;;;;;;;5114222;28;20596;-65
2023/09/27 11:29:37;;;;;;;8.90;8.07;;;;;;;;;;5113455;28;20280;-65
2023/09/27 11:32:06;;;;;;;8.68;7.97;;;;;;;;;;5113913;28;20206;-65
2023/09/27 11:34:33;;;;;;;8.43;7.72;;;;;;;;;;5113288;28;20297;-65
2023/09/27 11:37:03;;;;;;;8.80;8.00;;;;;;;;;;5111652;28;20223;-65
2023/09/27 11:39:31;;;;;;;8.32;7.63;;;;;;;;;;5114274;28;20230;-65
2023/09/27 11:41:59;;;;;;;8.88;8.07;;;;;;;;;;5113551;28;20199;-65
2023/09/27 11:44:29;;;;;;;9.10;8.20;;;;;;;;;;5114789;28;20335;-65
2023/09/27 11:47:06;;;;;;;8.60;7.80;;;;;;;;;;5114570;28;20203;-65
2023/09/27 11:49:34;;;;;;;8.88;8.07;;;;;;;;;;5114359;28;20269;-65
2023/09/27 11:52:05;;;;;;;8.88;8.07;;;;;;;;;;5114284;28;20214;-65
2023/09/27 11:54:33;;;;;;;8.88;8.02;;;;;;;;;;5114745;28;20237;-65
2023/09/27 11:57:01;;;;;;;8.93;8.15;;;;;;;;;;5115119;28;20222;-65
2023/09/27 11:59:31;;;;;;;8.85;7.95;;;;;;;;;;5115134;28;20225;-65
2023/09/27 12:01:58;;;;;;;8.73;7.90;;;;;;;;;;5115026;28;20203;-65
2023/09/27 12:04:26;;;;;;;8.52;7.82;;;;;;;;;;5114068;28;20297;-65
2023/09/27 12:06:54;;;;;;;8.95;8.15;;;;;;;;;;5094940;28;20204;-65
2023/09/27 12:09:22;;;;;;;9.02;8.15;;;;;;;;;;5093928;28;20268;-65
2023/09/27 12:11:50;;;;;;;8.73;7.85;;;;;;;;;;5093496;28;20212;-65
2023/09/27 12:14:17;;;;;;;9.32;8.52;;;;;;;;;;5093124;28;20271;-65
2023/09/27 12:16:47;;;;;;;8.93;8.10;;;;;;;;;;5093106;28;20207;-65
2023/09/27 12:19:14;;;;;;;9.23;8.32;;;;;;;;;;5093657;28;20207;-65
2023/09/27 12:21:42;;;;;;;9.35;8.43;;;;;;;;;;5092696;28;20204;-65
2023/09/27 12:24:10;;;;;;;9.48;8.57;;;;;;;;;;5093401;28;20525;-65
2023/09/27 12:26:38;;;;;;;8.18;7.47;;;;;;;;;;5093788;28;20793;-65
2023/09/27 12:29:06;;;;;;;8.75;7.95;;;;;;;;;;5093605;28;20338;-65
2023/09/27 12:31:34;;;;;;;9.43;8.52;;;;;;;;;;5091938;28;20223;-65
2023/09/27 12:34:03;;;;;;;9.73;8.85;;;;;;;;;;5091357;28;20314;-65
2023/09/27 12:36:31;;;;;;;9.35;8.52;;;;;;;;;;5093526;28;20256;-65
2023/09/27 12:38:59;;;;;;;9.38;8.52;;;;;;;;;;5090769;28;20273;-65
2023/09/27 12:41:27;;;;;;;8.82;7.93;;;;;;;;;;5097390;28;20264;-65
2023/09/27 12:43:54;;;;;;;9.20;8.40;;;;;;;;;;5097607;28;20211;-65
2023/09/27 12:46:22;;;;;;;9.45;8.48;;;;;;;;;;5097033;28;20292;-65
2023/09/27 12:48:50;;;;;;;10.23;8.82;;;;;;;;;;5097212;28;20318;-65
2023/09/27 12:51:19;;;;;;;11.32;8.90;;;;;;;;;;5095448;28;20230;-65
2023/09/27 12:53:46;;;;;;;12.43;8.90;;;;;;;;;;5095643;28;20211;-65
2023/09/27 12:56:14;;;;;;;9.85;8.85;;;;;;;;;;5089312;28;20680;-66
2023/09/27 12:58:44;;;;;;;9.70;8.65;;;;;;;;;;5096652;28;20199;-66
2023/09/27 13:01:16;;;;;;;9.60;8.60;;;;;;;;;;5093077;28;20209;-66
2023/09/27 13:03:44;;;;;;;10.38;9.38;;;;;;;;;;5087576;28;20215;-65
2023/09/27 13:06:11;;;;;;;9.98;9.15;;;;;;;;;;5110966;28;20322;-65
2023/09/27 13:08:41;;;;;;;9.38;8.57;;;;;;;;;;5116069;28;20830;-65
2023/09/27 13:11:09;;;;;;;10.00;9.00;;;;;;;;;;5111739;28;20214;-65
2023/09/27 13:13:36;;;;;;;10.07;9.10;;;;;;;;;;5113188;28;20218;-66
2023/09/27 13:16:04;;;;;;;9.90;8.85;;;;;;;;;;5116354;28;20203;-65
2023/09/27 13:18:32;;;;;;;9.90;8.95;;;;;;;;;;5115723;28;20201;-65
2023/09/27 13:21:00;;;;;;;10.30;9.40;;;;;;;;;;5116414;28;20207;-66
2023/09/27 13:23:28;;;;;;;9.65;8.70;;;;;;;;;;5115120;28;20557;-66
2023/09/27 13:25:58;;;;;;;10.18;9.13;;;;;;;;;;5108501;28;20203;-66
2023/09/27 13:28:26;;;;;;;9.93;8.93;;;;;;;;;;5108526;28;20199;-65
2023/09/27 13:30:54;;;;;;;9.70;8.80;;;;;;;;;;5114229;28;20211;-65
2023/09/27 13:33:22;;;;;;;10.00;9.10;;;;;;;;;;5115722;28;20202;-65
2023/09/27 13:35:49;;;;;;;9.50;8.70;;;;;;;;;;5116178;28;20713;-65
2023/09/27 13:38:17;;;;;;;9.77;8.73;;;;;;;;;;5116981;28;20310;-65
2023/09/27 13:40:45;;;;;;;9.30;8.50;;;;;;;;;;5104836;28;20214;-65
2023/09/27 13:43:14;;;;;;;10.10;9.20;;;;;;;;;;5114737;28;20260;-66
2023/09/27 13:45:42;;;;;;;10.70;9.25;;;;;;;;;;5107353;28;20249;-66
2023/09/27 13:48:10;;;;;;;10.10;9.15;;;;;;;;;;5116747;28;20241;-66
2023/09/27 13:50:38;;;;;;;10.13;9.23;;;;;;;;;;5115822;28;20323;-66
2023/09/27 13:53:06;;;;;;;9.43;8.63;;;;;;;;;;5114828;28;20226;-66
2023/09/27 13:55:34;;;;;;;9.82;8.93;;;;;;;;;;5114859;28;20249;-66
2023/09/27 13:58:02;;;;;;;9.68;8.77;;;;;;;;;;5100587;28;20734;-66
2023/09/27 14:00:32;;;;;;;9.48;8.68;;;;;;;;;;5098147;28;20235;-66
2023/09/27 14:03:00;;;;;;;10.02;9.10;;;;;;;;;;5114888;28;20680;-66
2023/09/27 14:05:28;;;;;;;9.68;8.88;;;;;;;;;;5115357;28;20833;-66
2023/09/27 14:07:55;;;;;;;10.27;9.38;;;;;;;;;;5114431;28;20203;-66
2023/09/27 14:10:23;;;;;;;9.20;8.40;;;;;;;;;;5108913;28;20227;-66
2023/09/27 14:12:51;;;;;;;9.50;8.70;;;;;;;;;;5093869;28;20230;-66
2023/09/27 14:15:20;;;;;;;9.85;9.00;;;;;;;;;;5094398;28;20206;-66
2023/09/27 14:17:50;;;;;;;9.85;8.98;;;;;;;;;;5095259;28;20691;-66
2023/09/27 14:20:17;;;;;;;9.30;8.50;;;;;;;;;;5094766;28;20671;-66
2023/09/27 14:22:45;;;;;;;9.73;8.82;;;;;;;;;;5093904;28;20212;-66
2023/09/27 14:25:13;;;;;;;10.15;9.00;;;;;;;;;;5094182;28;20203;-66
2023/09/27 14:27:41;;;;;;;9.85;8.98;;;;;;;;;;5094136;28;20206;-66
2023/09/27 14:30:09;;;;;;;10.07;9.18;;;;;;;;;;5094190;28;20530;-66
2023/09/27 14:32:38;;;;;;;9.73;8.93;;;;;;;;;;5094951;28;20235;-66
2023/09/27 14:35:10;;;;;;;9.90;9.00;;;;;;;;;;5094862;28;20199;-66
2023/09/27 14:37:39;;;;;;;9.90;9.00;;;;;;;;;;5093646;28;20207;-66
2023/09/27 14:40:09;;;;;;;9.40;8.65;;;;;;;;;;5094264;28;20199;-66
2023/09/27 14:42:37;;;;;;;9.38;8.57;;;;;;;;;;5095119;28;20243;-66
2023/09/27 14:45:07;;;;;;;9.55;8.65;;;;;;;;;;5094436;28;20203;-66
2023/09/27 14:47:35;;;;;;;9.60;8.77;;;;;;;;;;5094419;28;20215;-66
2023/09/27 14:50:06;;;;;;;9.50;8.70;;;;;;;;;;5093477;28;20242;-66
2023/09/27 14:52:35;;;;;;;9.68;8.88;;;;;;;;;;5094808;28;20637;-66
2023/09/27 14:55:04;;;;;;;9.35;8.43;;;;;;;;;;5094125;28;20253;-66